Time;durP1;ratioP1;P1;durP2;ratioP2;P2;SDS_P1;SDS_P2;PMS_P1;PMS_P2;Temp;Humidity;BMP_temperature;BMP_pressure;BME280_temperature;BME280_humidity;BME280_pressure;Samples;Min_cycle;Max_cycle;Signal;HPM_P1;HPM_P2
2023/12/28 00:01:47;;;;;;;2.00;1.60;;;;;;;;;;4971020;28;20210;-70
2023/12/28 00:04:15;;;;;;;3.63;1.80;;;7.70;99.90;;;;;;4936574;28;20215;-70
2023/12/28 00:06:42;;;;;;;4.57;1.80;;;7.80;99.90;;;;;;4979865;28;20293;-70
2023/12/28 00:09:09;;;;;;;1.90;1.70;;;7.70;99.90;;;;;;4957955;28;20592;-70
2023/12/28 00:11:36;;;;;;;3.47;2.00;;;7.80;99.90;;;;;;4975774;28;20524;-70
2023/12/28 00:14:03;;;;;;;3.53;1.60;;;8.00;99.90;;;;;;4982232;28;20248;-70
2023/12/28 00:16:33;;;;;;;2.50;1.57;;;7.80;99.90;;;;;;4960643;28;20942;-70
2023/12/28 00:19:01;;;;;;;2.63;1.90;;;7.80;99.90;;;;;;4944133;28;20217;-69
2023/12/28 00:21:30;;;;;;;3.67;1.50;;;7.80;99.90;;;;;;4978873;28;20209;-70
2023/12/28 00:23:57;;;;;;;4.50;1.83;;;7.80;99.90;;;;;;4970940;28;20207;-70
2023/12/28 00:26:23;;;;;;;4.73;2.10;;;7.80;99.90;;;;;;4973718;28;20725;-70
2023/12/28 00:28:50;;;;;;;4.27;1.90;;;7.90;99.90;;;;;;4978924;28;20710;-70
2023/12/28 00:31:17;;;;;;;2.07;1.80;;;7.90;99.90;;;;;;4964941;28;20211;-70
2023/12/28 00:33:44;;;;;;;4.00;1.73;;;7.90;99.90;;;;;;4934307;28;20227;-70
2023/12/28 00:36:11;;;;;;;7.65;1.83;;;7.80;99.90;;;;;;4977121;28;20978;-70
2023/12/28 00:38:39;;;;;;;5.03;1.80;;;7.90;99.90;;;;;;4975460;28;20322;-70
2023/12/28 00:41:06;;;;;;;2.23;1.70;;;7.90;99.90;;;;;;4966026;28;20570;-70
2023/12/28 00:43:33;;;;;;;1.70;1.60;;;7.80;99.90;;;;;;4981234;28;20385;-70
2023/12/28 00:46:00;;;;;;;2.47;1.87;;;7.90;99.90;;;;;;4976906;28;20227;-69
2023/12/28 00:48:27;;;;;;;2.87;1.47;;;8.00;99.90;;;;;;4958324;28;20226;-70
2023/12/28 00:50:55;;;;;;;5.27;1.80;;;7.90;99.90;;;;;;4944095;28;20867;-70
2023/12/28 00:53:22;;;;;;;2.30;1.60;;;7.90;99.90;;;;;;4974430;28;20403;-70
2023/12/28 00:55:50;;;;;;;1.90;1.77;;;8.00;99.90;;;;;;4968052;28;20206;-70
2023/12/28 00:58:17;;;;;;;3.70;2.10;;;8.20;99.90;;;;;;4974922;28;20203;-70
2023/12/28 01:00:44;;;;;;;3.50;1.85;;;8.00;99.90;;;;;;4964724;28;20210;-70
2023/12/28 01:03:11;;;;;;;2.15;1.75;;;8.00;99.90;;;;;;4956531;28;20210;-70
2023/12/28 01:05:38;;;;;;;6.50;2.08;;;8.10;99.90;;;;;;4936754;28;20297;-70
2023/12/28 01:08:05;;;;;;;1.92;1.70;;;8.10;99.90;;;;;;4974485;28;20226;-70
2023/12/28 01:10:32;;;;;;;2.13;1.60;;;8.10;99.90;;;;;;4964446;28;21196;-70
2023/12/28 01:13:00;;;;;;;2.03;1.60;;;8.10;99.90;;;;;;4975482;28;21588;-70
2023/12/28 01:15:27;;;;;;;1.73;1.60;;;8.10;99.90;;;;;;4977840;28;20534;-70
2023/12/28 01:17:54;;;;;;;2.53;2.00;;;8.10;99.90;;;;;;4969179;28;20297;-70
2023/12/28 01:20:21;;;;;;;2.00;1.70;;;8.10;99.90;;;;;;4928758;28;21714;-70
2023/12/28 01:22:49;;;;;;;2.30;1.70;;;8.20;99.90;;;;;;4979583;28;20199;-70
2023/12/28 01:25:16;;;;;;;3.45;1.70;;;8.80;99.90;;;;;;4971493;28;20294;-70
2023/12/28 01:27:43;;;;;;;5.17;1.70;;;8.20;99.90;;;;;;4962360;28;20233;-70
2023/12/28 01:30:11;;;;;;;2.73;1.77;;;8.20;99.90;;;;;;4976024;28;20950;-70
2023/12/28 01:32:38;;;;;;;2.80;1.60;;;8.20;99.90;;;;;;4977637;28;20896;-70
2023/12/28 01:35:06;;;;;;;3.03;2.25;;;8.20;99.90;;;;;;4968151;28;21050;-70
2023/12/28 01:37:33;;;;;;;1.65;1.52;;;8.60;99.90;;;;;;4934203;28;20211;-70
2023/12/28 01:40:00;;;;;;;2.50;1.77;;;8.30;99.90;;;;;;4979905;28;20676;-69
2023/12/28 01:42:29;;;;;;;4.13;1.70;;;7.90;99.90;;;;;;4968127;28;20438;-70
2023/12/28 01:44:57;;;;;;;3.67;2.03;;;8.10;99.90;;;;;;4980368;28;20694;-70
2023/12/28 01:47:25;;;;;;;2.45;1.70;;;8.10;99.90;;;;;;4977932;28;20411;-70
2023/12/28 01:49:53;;;;;;;2.23;1.50;;;8.20;99.90;;;;;;4974858;28;20229;-70
2023/12/28 01:52:21;;;;;;;2.75;1.92;;;8.10;99.90;;;;;;4942211;28;20488;-70
2023/12/28 01:54:48;;;;;;;3.07;2.07;;;8.10;99.90;;;;;;4980652;28;20210;-70
2023/12/28 01:57:16;;;;;;;5.53;1.83;;;8.10;99.90;;;;;;4973972;28;20210;-70
2023/12/28 01:59:43;;;;;;;5.20;1.80;;;8.00;99.90;;;;;;4966882;28;20210;-70
2023/12/28 02:02:10;;;;;;;3.00;1.63;;;8.10;99.90;;;;;;4980536;28;20202;-70
2023/12/28 02:04:38;;;;;;;2.85;1.77;;;8.00;99.90;;;;;;4972852;28;20209;-70
2023/12/28 02:07:07;;;;;;;2.60;1.88;;;8.00;99.90;;;;;;4965521;28;20215;-70
2023/12/28 02:09:34;;;;;;;4.28;1.80;;;8.00;99.90;;;;;;4964514;28;20799;-70
2023/12/28 02:12:02;;;;;;;5.70;2.17;;;8.10;99.90;;;;;;4984102;28;20587;-69
2023/12/28 02:14:29;;;;;;;4.22;2.00;;;8.10;99.90;;;;;;4969939;28;20539;-70
2023/12/28 02:17:04;;;;;;;3.35;1.80;;;8.10;99.90;;;;;;4983012;28;20195;-70
2023/12/28 02:19:40;;;;;;;3.15;1.88;;;8.00;99.90;;;;;;4966131;28;20539;-70
2023/12/28 02:22:09;;;;;;;1.85;1.60;;;8.00;99.90;;;;;;4975216;28;20203;-70
2023/12/28 02:25:04;;;;;;;4.37;2.10;;;8.00;99.90;;;;;;4946927;28;20211;-70
2023/12/28 02:27:30;;;;;;;2.23;1.70;;;8.00;99.90;;;;;;4975520;28;20326;-69
2023/12/28 02:29:58;;;;;;;1.83;1.73;;;8.00;99.90;;;;;;4981768;28;20226;-70
2023/12/28 02:32:34;;;;;;;3.67;2.03;;;7.90;99.90;;;;;;4963270;28;20981;-70
2023/12/28 02:35:10;;;;;;;3.03;1.73;;;9.20;99.90;;;;;;4974422;28;20241;-70
2023/12/28 02:37:39;;;;;;;3.88;1.70;;;7.90;99.90;;;;;;4976321;28;20229;-70
2023/12/28 02:40:11;;;;;;;3.30;1.90;;;8.00;99.90;;;;;;4938747;28;20217;-70
2023/12/28 02:42:38;;;;;;;2.87;1.90;;;8.40;99.90;;;;;;4981674;28;20356;-70
2023/12/28 02:45:06;;;;;;;2.73;1.83;;;7.90;99.90;;;;;;4970424;28;20801;-70
2023/12/28 02:47:33;;;;;;;4.17;2.10;;;8.00;99.90;;;;;;4962807;28;20207;-70
2023/12/28 02:50:00;;;;;;;3.30;2.07;;;7.90;99.90;;;;;;4974669;28;20241;-70
2023/12/28 02:52:27;;;;;;;2.75;2.00;;;8.00;99.90;;;;;;4970849;28;20200;-70
2023/12/28 02:54:53;;;;;;;5.07;1.97;;;8.00;99.90;;;;;;4942039;28;20222;-70
2023/12/28 02:57:22;;;;;;;2.30;1.80;;;8.00;99.90;;;;;;4978124;28;20208;-69
2023/12/28 02:59:48;;;;;;;3.25;1.90;;;8.00;99.90;;;;;;4966021;28;20405;-70
2023/12/28 03:02:16;;;;;;;2.80;1.85;;;8.00;99.90;;;;;;4968942;28;20204;-70
2023/12/28 03:04:43;;;;;;;4.50;1.88;;;8.00;99.90;;;;;;4978684;28;20349;-70
2023/12/28 03:07:10;;;;;;;3.60;2.35;;;8.00;99.90;;;;;;4948951;28;20224;-70
2023/12/28 03:09:38;;;;;;;4.72;2.20;;;8.00;99.90;;;;;;4939357;28;21033;-70
2023/12/28 03:12:06;;;;;;;2.70;1.90;;;8.00;99.90;;;;;;4969115;28;20203;-70
2023/12/28 03:14:35;;;;;;;3.05;2.03;;;8.00;99.90;;;;;;4982687;28;20213;-70
2023/12/28 03:17:02;;;;;;;3.72;1.80;;;;;;;;;;4968145;28;20206;-70
2023/12/28 03:19:29;;;;;;;5.63;2.37;;;8.00;99.90;;;;;;4981854;28;20203;-70
2023/12/28 03:21:55;;;;;;;4.70;2.35;;;8.00;99.90;;;;;;4974939;28;20196;-70
2023/12/28 03:24:22;;;;;;;4.13;2.40;;;8.00;99.90;;;;;;4967207;28;20749;-70
2023/12/28 03:26:49;;;;;;;3.15;1.98;;;8.20;99.90;;;;;;4929612;28;20572;-70
2023/12/28 03:29:16;;;;;;;1.90;1.67;;;8.00;99.90;;;;;;4974965;28;20693;-70
2023/12/28 03:31:44;;;;;;;5.28;2.10;;;8.10;99.90;;;;;;4963990;28;20221;-70
2023/12/28 03:34:11;;;;;;;2.38;1.85;;;8.00;99.90;;;;;;4952669;28;20243;-70
2023/12/28 03:36:38;;;;;;;3.20;2.38;;;8.10;99.90;;;;;;4966050;28;20228;-70
2023/12/28 03:39:05;;;;;;;3.13;1.90;;;8.10;99.90;;;;;;4971585;28;20203;-70
2023/12/28 03:41:33;;;;;;;3.40;2.03;;;8.00;99.90;;;;;;4945545;28;20575;-70
2023/12/28 03:44:00;;;;;;;2.53;1.90;;;8.00;99.90;;;;;;4976592;28;20237;-70
2023/12/28 03:46:27;;;;;;;6.10;2.17;;;8.10;99.90;;;;;;4973916;28;20277;-70
2023/12/28 03:48:55;;;;;;;2.53;2.20;;;8.10;99.90;;;;;;4968141;28;20222;-70
2023/12/28 03:51:22;;;;;;;3.40;2.08;;;8.00;99.90;;;;;;4971031;28;20474;-70
2023/12/28 03:53:49;;;;;;;3.87;2.20;;;8.10;99.90;;;;;;4945034;28;20323;-70
2023/12/28 03:56:21;;;;;;;1.90;1.73;;;8.00;99.90;;;;;;4967542;28;20222;-70
2023/12/28 03:58:47;;;;;;;4.50;2.07;;;8.00;99.90;;;;;;4937594;28;20347;-70
2023/12/28 04:01:14;;;;;;;2.17;1.97;;;7.90;99.90;;;;;;4971437;28;20206;-70
2023/12/28 04:03:41;;;;;;;3.33;2.05;;;7.90;99.90;;;;;;4963244;28;20204;-70
2023/12/28 04:06:09;;;;;;;3.97;1.63;;;8.10;99.90;;;;;;4976526;28;20206;-70
2023/12/28 04:08:36;;;;;;;2.63;1.95;;;8.10;99.90;;;;;;4965033;28;21043;-70
2023/12/28 04:11:03;;;;;;;3.88;2.08;;;8.10;99.90;;;;;;4966066;28;20812;-70
2023/12/28 04:13:30;;;;;;;2.05;1.85;;;8.10;99.90;;;;;;4943192;28;20205;-70
2023/12/28 04:15:57;;;;;;;3.30;2.17;;;8.10;99.90;;;;;;4964917;28;20206;-70
2023/12/28 04:18:24;;;;;;;4.07;2.10;;;;;;;;;;4965354;28;20230;-69
2023/12/28 04:20:51;;;;;;;4.70;2.03;;;7.90;99.90;;;;;;4970580;28;20195;-70
2023/12/28 04:23:20;;;;;;;4.13;2.23;;;8.00;99.90;;;;;;4966747;28;20205;-70
2023/12/28 04:25:46;;;;;;;2.60;1.90;;;8.20;99.90;;;;;;4966072;28;21050;-70
2023/12/28 04:28:13;;;;;;;4.82;1.88;;;8.20;99.90;;;;;;4978504;28;20708;-70
2023/12/28 04:30:40;;;;;;;7.38;2.00;;;8.20;99.90;;;;;;4940132;28;20238;-70
2023/12/28 04:33:07;;;;;;;4.83;1.90;;;8.20;99.90;;;;;;4980609;28;20231;-69
2023/12/28 04:35:34;;;;;;;2.70;1.95;;;8.20;99.90;;;;;;4970000;28;20206;-70
2023/12/28 04:38:01;;;;;;;1.60;1.50;;;8.20;99.90;;;;;;4975515;28;20203;-70
2023/12/28 04:40:29;;;;;;;6.25;1.80;;;8.20;99.90;;;;;;4966631;28;20199;-69
2023/12/28 04:42:56;;;;;;;2.97;2.13;;;8.20;99.90;;;;;;4974493;28;20203;-70
2023/12/28 04:45:23;;;;;;;4.55;2.03;;;8.20;99.90;;;;;;4948855;28;20226;-69
2023/12/28 04:47:50;;;;;;;4.68;2.15;;;8.20;99.90;;;;;;4978236;28;20196;-70
2023/12/28 04:50:17;;;;;;;2.47;1.75;;;8.20;99.90;;;;;;4977128;28;20230;-70
2023/12/28 04:52:44;;;;;;;2.60;1.80;;;8.20;99.90;;;;;;4966472;28;20233;-70
2023/12/28 04:55:10;;;;;;;3.30;2.03;;;8.20;99.90;;;;;;4969150;28;20234;-70
2023/12/28 04:57:39;;;;;;;2.95;1.90;;;8.30;99.90;;;;;;4963002;28;20198;-70
2023/12/28 05:00:08;;;;;;;5.35;2.25;;;8.30;99.90;;;;;;4977067;28;20199;-70
2023/12/28 05:02:35;;;;;;;5.30;2.10;;;8.30;99.90;;;;;;4909343;28;21474;-70
2023/12/28 05:05:02;;;;;;;3.72;2.15;;;8.40;99.90;;;;;;4973024;28;20199;-70
2023/12/28 05:07:28;;;;;;;5.28;1.95;;;8.40;99.90;;;;;;4957009;28;20202;-70
2023/12/28 05:09:55;;;;;;;3.30;1.80;;;8.40;99.90;;;;;;4964670;28;20257;-69
2023/12/28 05:12:22;;;;;;;5.22;1.88;;;8.30;99.90;;;;;;4970117;28;20211;-70
2023/12/28 05:14:50;;;;;;;2.55;1.75;;;8.30;99.90;;;;;;4980475;28;20195;-69
2023/12/28 05:17:17;;;;;;;2.20;1.63;;;8.40;99.90;;;;;;4942964;28;21189;-70
2023/12/28 05:19:44;;;;;;;4.50;1.65;;;8.40;99.90;;;;;;4983320;28;21521;-70
2023/12/28 05:22:12;;;;;;;3.78;2.03;;;8.30;99.90;;;;;;4964556;28;20343;-70
2023/12/28 05:24:39;;;;;;;5.88;2.42;;;8.40;99.90;;;;;;4968599;28;20242;-70
2023/12/28 05:27:06;;;;;;;4.68;2.53;;;8.30;99.90;;;;;;4962656;28;20211;-70
2023/12/28 05:29:33;;;;;;;2.03;1.70;;;9.20;99.90;;;;;;4971647;28;20222;-70
2023/12/28 05:32:01;;;;;;;4.72;1.77;;;8.30;99.90;;;;;;4954287;28;20216;-70
2023/12/28 05:34:28;;;;;;;5.53;2.17;;;8.30;99.90;;;;;;4970903;28;20223;-70
2023/12/28 05:36:55;;;;;;;2.72;1.85;;;8.40;99.90;;;;;;4964683;28;20885;-70
2023/12/28 05:39:22;;;;;;;2.47;1.92;;;8.40;99.90;;;;;;4970591;28;20433;-70
2023/12/28 05:41:50;;;;;;;3.05;2.17;;;8.50;99.90;;;;;;4970322;28;20206;-69
2023/12/28 05:44:17;;;;;;;6.15;2.08;;;8.50;99.90;;;;;;4970539;28;20219;-70
2023/12/28 05:46:44;;;;;;;5.75;1.85;;;8.50;99.90;;;;;;4981484;28;20338;-70
2023/12/28 05:49:13;;;;;;;6.67;1.87;;;8.50;99.90;;;;;;4943481;28;20227;-70
2023/12/28 05:51:40;;;;;;;3.97;1.50;;;8.50;99.90;;;;;;4973350;28;20199;-70
2023/12/28 05:54:07;;;;;;;1.88;1.73;;;8.50;99.90;;;;;;4947783;28;21405;-70
2023/12/28 05:56:34;;;;;;;5.07;1.90;;;8.60;99.90;;;;;;4965038;28;20785;-70
2023/12/28 05:59:01;;;;;;;2.28;1.75;;;8.60;99.90;;;;;;4957719;28;20209;-70
2023/12/28 06:01:28;;;;;;;5.70;1.80;;;8.60;99.90;;;;;;4980637;28;20301;-70
2023/12/28 06:03:55;;;;;;;5.47;2.03;;;8.70;99.90;;;;;;4946090;28;20596;-70
2023/12/28 06:06:24;;;;;;;5.03;1.58;;;8.70;99.90;;;;;;4974303;28;20820;-70
2023/12/28 06:08:51;;;;;;;7.68;1.98;;;8.70;99.90;;;;;;4969413;28;20349;-70
2023/12/28 06:11:18;;;;;;;3.22;1.40;;;8.70;99.90;;;;;;4955459;28;20908;-70
2023/12/28 06:13:45;;;;;;;4.00;1.77;;;8.80;99.90;;;;;;4961432;28;20757;-70
2023/12/28 06:16:11;;;;;;;1.98;1.35;;;8.80;99.90;;;;;;4977504;28;21048;-70
2023/12/28 06:18:38;;;;;;;4.47;1.80;;;8.90;99.90;;;;;;4943173;28;20211;-70
2023/12/28 06:21:06;;;;;;;4.38;1.50;;;8.80;99.90;;;;;;4973022;28;20703;-70
2023/12/28 06:23:35;;;;;;;2.38;1.30;;;8.90;99.90;;;;;;4960507;28;20312;-70
2023/12/28 06:26:06;;;;;;;4.30;1.75;;;8.90;99.90;;;;;;4969011;28;20912;-70
2023/12/28 06:28:33;;;;;;;5.60;1.75;;;8.90;99.90;;;;;;4967212;28;20209;-70
2023/12/28 06:31:01;;;;;;;5.88;2.20;;;9.00;99.90;;;;;;4971203;28;20232;-70
2023/12/28 06:33:28;;;;;;;5.47;1.58;;;9.00;99.90;;;;;;4976817;28;20254;-70
2023/12/28 06:35:57;;;;;;;4.70;1.75;;;9.00;99.90;;;;;;4950546;28;20207;-70
2023/12/28 06:38:24;;;;;;;7.88;2.20;;;9.00;99.90;;;;;;4950704;28;20200;-70
2023/12/28 06:40:53;;;;;;;4.15;1.58;;;9.00;99.90;;;;;;4968749;28;20206;-70
2023/12/28 06:43:20;;;;;;;5.18;2.20;;;9.00;99.90;;;;;;4959809;28;20215;-70
2023/12/28 06:45:47;;;;;;;7.22;1.70;;;9.00;99.90;;;;;;4967245;28;20716;-70
2023/12/28 06:48:13;;;;;;;6.10;2.33;;;9.10;99.90;;;;;;4975878;28;20575;-70
2023/12/28 06:50:40;;;;;;;3.33;2.05;;;9.10;99.90;;;;;;4934337;28;20242;-70
2023/12/28 06:53:07;;;;;;;5.75;2.00;;;9.10;99.90;;;;;;4945202;28;21058;-70
2023/12/28 06:55:34;;;;;;;3.63;1.50;;;9.10;99.90;;;;;;4969674;28;20203;-70
2023/12/28 06:58:03;;;;;;;4.43;1.60;;;9.00;99.90;;;;;;4956485;28;20413;-70
2023/12/28 07:00:30;;;;;;;8.32;2.00;;;9.10;99.90;;;;;;4959244;28;20258;-69
2023/12/28 07:02:57;;;;;;;5.03;1.77;;;8.80;99.90;;;;;;4976920;28;21048;-70
2023/12/28 07:05:24;;;;;;;2.92;1.80;;;9.20;99.90;;;;;;4979941;28;20199;-70
2023/12/28 07:07:51;;;;;;;9.52;2.35;;;9.20;99.90;;;;;;4928579;28;20203;-70
2023/12/28 07:10:18;;;;;;;5.70;2.35;;;9.30;99.90;;;;;;4977973;28;20225;-70
2023/12/28 07:12:45;;;;;;;11.30;2.03;;;9.30;99.90;;;;;;4966836;28;20204;-70
2023/12/28 07:15:14;;;;;;;5.95;1.90;;;9.20;99.90;;;;;;4968350;28;20199;-70
2023/12/28 07:17:41;;;;;;;5.72;1.75;;;9.20;99.90;;;;;;4979135;28;20371;-70
2023/12/28 07:20:10;;;;;;;7.75;1.70;;;9.30;99.90;;;;;;4976157;28;20815;-70
2023/12/28 07:22:37;;;;;;;4.85;1.90;;;9.30;99.90;;;;;;4930297;28;20203;-70
2023/12/28 07:25:06;;;;;;;4.60;1.83;;;9.30;99.90;;;;;;4973567;28;20290;-71
2023/12/28 07:27:33;;;;;;;6.00;2.35;;;9.60;99.90;;;;;;4976792;28;20584;-69
2023/12/28 07:30:00;;;;;;;8.10;2.22;;;;;;;;;;4952518;28;23332;-70
2023/12/28 07:32:30;;;;;;;10.13;2.15;;;9.40;99.90;;;;;;4969800;28;20226;-70
2023/12/28 07:34:58;;;;;;;6.45;1.85;;;9.50;99.90;;;;;;4962958;28;20961;-70
2023/12/28 07:37:25;;;;;;;2.85;1.83;;;9.40;99.90;;;;;;4944266;28;20223;-70
2023/12/28 07:39:52;;;;;;;7.97;1.42;;;9.50;99.90;;;;;;4930419;28;20806;-69
2023/12/28 07:42:19;;;;;;;6.85;2.05;;;9.50;99.90;;;;;;4971355;28;20225;-69
2023/12/28 07:44:46;;;;;;;5.72;1.75;;;9.50;99.90;;;;;;4963390;28;20213;-69
2023/12/28 07:47:14;;;;;;;2.95;1.50;;;9.50;99.90;;;;;;4966696;28;20203;-69
2023/12/28 07:49:42;;;;;;;7.35;1.90;;;9.60;99.90;;;;;;4967155;28;20202;-69
2023/12/28 07:52:09;;;;;;;10.32;1.77;;;9.50;99.90;;;;;;4975656;28;20321;-69
2023/12/28 07:54:36;;;;;;;5.47;1.88;;;9.50;99.90;;;;;;4929696;28;20960;-69
2023/12/28 07:57:03;;;;;;;6.78;1.48;;;9.50;99.90;;;;;;4972925;28;20912;-69
2023/12/28 07:59:30;;;;;;;5.43;1.80;;;9.50;99.90;;;;;;4968562;28;20199;-69
2023/12/28 08:01:57;;;;;;;1.90;1.48;;;9.50;99.90;;;;;;4965821;28;20199;-69
2023/12/28 08:04:24;;;;;;;6.70;2.10;;;9.50;99.90;;;;;;4980324;28;20581;-69
2023/12/28 08:06:52;;;;;;;8.13;2.38;;;9.50;99.90;;;;;;4954809;28;20207;-69
2023/12/28 08:09:19;;;;;;;6.40;2.00;;;9.60;99.90;;;;;;4944771;28;20222;-69
2023/12/28 08:11:46;;;;;;;12.10;2.05;;;9.60;99.90;;;;;;4957074;28;20230;-69
2023/12/28 08:14:13;;;;;;;4.85;2.00;;;9.60;99.90;;;;;;4969491;28;20200;-69
2023/12/28 08:16:40;;;;;;;6.82;2.05;;;10.00;99.90;;;;;;4958823;28;20213;-69
2023/12/28 08:19:07;;;;;;;4.65;2.55;;;9.70;99.90;;;;;;4955719;28;20206;-69
2023/12/28 08:21:34;;;;;;;6.90;2.08;;;;;;;;;;4975126;28;20194;-69
2023/12/28 08:24:03;;;;;;;6.60;2.20;;;9.60;99.90;;;;;;4928345;28;20435;-69
2023/12/28 08:26:32;;;;;;;8.25;2.05;;;9.90;99.90;;;;;;4964603;28;20203;-69
2023/12/28 08:28:59;;;;;;;8.68;2.15;;;8.70;99.90;;;;;;4975529;28;20381;-69
2023/12/28 08:31:26;;;;;;;4.15;1.63;;;9.80;99.90;;;;;;4971354;28;20234;-69
2023/12/28 08:33:53;;;;;;;4.82;2.10;;;9.90;99.90;;;;;;4957566;28;20329;-70
2023/12/28 08:36:20;;;;;;;6.13;2.20;;;9.80;99.90;;;;;;4981637;28;20703;-70
2023/12/28 08:38:47;;;;;;;13.10;2.15;;;9.90;99.90;;;;;;4967398;28;20247;-70
2023/12/28 08:41:20;;;;;;;9.27;2.15;;;9.90;99.90;;;;;;4944398;28;20228;-69
2023/12/28 08:43:48;;;;;;;6.97;2.25;;;9.90;99.90;;;;;;4979729;28;20299;-69
2023/12/28 08:46:15;;;;;;;10.30;2.47;;;9.90;99.90;;;;;;4966587;28;20219;-69
2023/12/28 08:48:42;;;;;;;7.07;1.67;;;9.90;99.90;;;;;;4968652;28;20214;-69
2023/12/28 08:51:10;;;;;;;8.45;1.88;;;9.90;99.90;;;;;;4963421;28;20322;-69
2023/12/28 08:53:37;;;;;;;7.57;2.03;;;10.00;99.90;;;;;;4972877;28;21019;-69
2023/12/28 08:56:13;;;;;;;8.45;2.05;;;10.00;99.90;;;;;;4943782;28;20890;-69
2023/12/28 08:58:41;;;;;;;5.70;1.95;;;10.10;99.90;;;;;;4980873;28;20190;-69
2023/12/28 09:01:08;;;;;;;5.68;2.30;;;10.00;99.90;;;;;;4965386;28;20617;-69
2023/12/28 09:03:35;;;;;;;6.88;2.00;;;10.00;99.90;;;;;;4951833;28;20195;-69
2023/12/28 09:06:02;;;;;;;4.65;2.60;;;10.00;99.90;;;;;;4974237;28;20290;-69
2023/12/28 09:08:29;;;;;;;4.43;1.73;;;10.00;99.90;;;;;;4982351;28;20195;-69
2023/12/28 09:10:56;;;;;;;5.65;1.52;;;10.00;99.90;;;;;;4970832;28;20231;-69
2023/12/28 09:13:24;;;;;;;6.70;2.00;;;10.00;99.90;;;;;;4962928;28;20202;-69
2023/12/28 09:15:52;;;;;;;12.88;1.98;;;10.00;99.90;;;;;;4976394;28;20200;-70
2023/12/28 09:18:19;;;;;;;5.28;1.83;;;;;;;;;;4970918;28;20203;-69
2023/12/28 09:20:48;;;;;;;12.07;2.90;;;10.10;99.90;;;;;;4951870;28;20565;-69
2023/12/28 09:23:15;;;;;;;8.10;1.80;;;10.10;99.90;;;;;;4964701;28;20744;-69
2023/12/28 09:25:42;;;;;;;7.15;1.73;;;10.00;99.90;;;;;;4968823;28;20198;-69
2023/12/28 09:28:09;;;;;;;7.95;2.47;;;10.10;99.90;;;;;;4939959;28;20206;-69
2023/12/28 09:30:36;;;;;;;12.77;2.15;;;10.10;99.90;;;;;;4964330;28;20246;-69
2023/12/28 09:33:05;;;;;;;7.85;2.17;;;10.10;99.90;;;;;;4965057;28;20195;-69
2023/12/28 09:35:32;;;;;;;5.78;1.85;;;10.00;99.90;;;;;;4953732;28;20210;-69
2023/12/28 09:37:59;;;;;;;5.50;2.17;;;10.00;99.90;;;;;;4962597;28;20200;-68
2023/12/28 09:40:26;;;;;;;5.07;2.03;;;10.10;99.90;;;;;;4958635;28;20463;-69
2023/12/28 09:43:00;;;;;;;7.18;1.80;;;10.10;99.90;;;;;;4912855;28;20215;-69
2023/12/28 09:45:27;;;;;;;10.25;2.70;;;10.10;99.90;;;;;;4961538;28;20558;-69
2023/12/28 09:47:54;;;;;;;6.38;1.88;;;10.10;99.90;;;;;;4966300;28;20226;-69
2023/12/28 09:50:26;;;;;;;10.30;2.60;;;10.10;99.90;;;;;;4954207;28;20414;-69
2023/12/28 09:52:53;;;;;;;5.80;2.35;;;10.10;99.90;;;;;;4973138;28;20613;-69
2023/12/28 09:55:20;;;;;;;12.25;2.30;;;10.10;99.90;;;;;;4956043;28;20620;-69
2023/12/28 09:57:48;;;;;;;11.23;2.15;;;10.10;99.90;;;;;;4930018;28;20210;-69
2023/12/28 10:00:15;;;;;;;4.47;2.03;;;10.10;99.90;;;;;;4963784;28;20213;-69
2023/12/28 10:02:45;;;;;;;6.38;2.42;;;10.20;99.90;;;;;;4960152;28;20849;-69
2023/12/28 10:05:14;;;;;;;6.97;2.72;;;10.20;99.90;;;;;;4956580;28;20578;-69
2023/12/28 10:07:44;;;;;;;10.23;2.30;;;10.20;99.90;;;;;;4969309;28;20230;-69
2023/12/28 10:10:11;;;;;;;9.23;2.45;;;10.10;99.90;;;;;;4976848;28;20311;-69
2023/12/28 10:12:38;;;;;;;9.07;2.72;;;10.30;99.90;;;;;;4968735;28;20325;-69
2023/12/28 10:15:06;;;;;;;10.48;2.95;;;10.30;99.90;;;;;;4931573;28;20227;-69
2023/12/28 10:17:34;;;;;;;12.45;2.45;;;10.40;99.90;;;;;;4953133;28;20227;-69
2023/12/28 10:20:06;;;;;;;10.90;2.00;;;10.40;99.90;;;;;;4955869;28;21095;-69
2023/12/28 10:22:33;;;;;;;10.70;2.13;;;10.40;99.90;;;;;;4967382;28;20234;-69
2023/12/28 10:25:03;;;;;;;8.25;1.98;;;10.40;99.90;;;;;;4966763;28;20218;-69
2023/12/28 10:27:30;;;;;;;8.55;2.20;;;10.40;99.90;;;;;;4963875;28;20396;-69
2023/12/28 10:29:57;;;;;;;5.22;2.00;;;10.40;99.90;;;;;;4935197;28;20215;-69
2023/12/28 10:32:25;;;;;;;8.25;2.50;;;10.40;99.90;;;;;;4959840;28;20234;-69
2023/12/28 10:34:54;;;;;;;12.70;2.22;;;10.40;99.90;;;;;;4973334;28;20592;-69
2023/12/28 10:37:22;;;;;;;6.28;2.25;;;10.40;99.90;;;;;;4955391;28;20712;-69
2023/12/28 10:39:50;;;;;;;7.13;1.83;;;10.40;99.90;;;;;;4964038;28;20221;-69
2023/12/28 10:42:31;;;;;;;7.65;1.80;;;10.50;99.90;;;;;;4968287;28;20249;-69
2023/12/28 10:45:05;;;;;;;10.57;2.42;;;10.50;99.90;;;;;;4936996;28;20247;-69
2023/12/28 10:47:35;;;;;;;8.07;2.33;;;10.50;99.90;;;;;;4967961;28;20316;-69
2023/12/28 10:50:06;;;;;;;7.05;2.60;;;10.50;99.90;;;;;;4966634;28;20207;-69
2023/12/28 10:52:33;;;;;;;5.07;1.98;;;10.60;99.90;;;;;;4948519;28;20836;-69
2023/12/28 10:55:21;;;;;;;9.30;2.35;;;10.60;99.90;;;;;;4973066;28;20738;-69
2023/12/28 10:57:59;;;;;;;5.55;2.17;;;11.30;99.90;;;;;;4968671;28;20705;-69
2023/12/28 11:00:30;;;;;;;9.52;3.40;;;10.50;99.90;;;;;;4922594;28;20215;-69
2023/12/28 11:03:03;;;;;;;8.68;2.38;;;10.60;99.90;;;;;;4976065;28;20218;-69
2023/12/28 11:05:31;;;;;;;8.38;2.10;;;10.90;99.90;;;;;;4955810;28;20407;-68
2023/12/28 11:08:00;;;;;;;11.00;2.17;;;10.60;99.90;;;;;;4964435;28;20239;-69
2023/12/28 11:10:29;;;;;;;4.68;2.03;;;10.60;99.90;;;;;;4952439;28;20533;-69
2023/12/28 11:12:58;;;;;;;15.40;3.00;;;10.60;99.90;;;;;;4964744;28;20772;-69
2023/12/28 11:15:26;;;;;;;7.57;1.90;;;11.10;99.90;;;;;;4912564;28;20224;-68
2023/12/28 11:17:53;;;;;;;12.95;2.03;;;10.50;99.90;;;;;;4968081;28;20203;-68
2023/12/28 11:20:21;;;;;;;7.45;2.75;;;10.60;99.90;;;;;;4963501;28;20226;-69
2023/12/28 11:22:49;;;;;;;12.57;2.63;;;10.60;99.90;;;;;;4959378;28;20648;-68
2023/12/28 11:25:18;;;;;;;11.63;2.38;;;10.60;99.90;;;;;;4963259;28;20310;-69
2023/12/28 11:27:46;;;;;;;9.90;2.40;;;10.60;99.90;;;;;;4970322;28;20202;-67
2023/12/28 11:30:15;;;;;;;7.55;2.10;;;10.70;99.90;;;;;;4931611;28;24523;-67
2023/12/28 11:32:43;;;;;;;8.00;2.10;;;10.60;99.90;;;;;;4980153;28;20591;-69
2023/12/28 11:35:13;;;;;;;9.02;1.67;;;10.60;99.90;;;;;;4982159;28;20237;-68
2023/12/28 11:37:44;;;;;;;11.30;3.88;;;10.60;99.90;;;;;;4965374;28;20313;-68
2023/12/28 11:40:13;;;;;;;10.60;2.42;;;10.70;99.90;;;;;;4967544;28;20234;-68
2023/12/28 11:42:50;;;;;;;12.25;2.42;;;10.70;99.90;;;;;;4953617;28;20304;-69
2023/12/28 11:45:19;;;;;;;12.63;2.42;;;10.60;99.90;;;;;;4926630;28;20443;-70
2023/12/28 11:47:46;;;;;;;7.07;2.20;;;10.70;99.90;;;;;;4980412;28;20205;-69
2023/12/28 11:50:14;;;;;;;7.18;2.88;;;10.70;99.90;;;;;;4977319;28;20314;-69
2023/12/28 11:52:41;;;;;;;11.32;3.13;;;10.70;99.90;;;;;;4974194;28;20250;-68
2023/12/28 11:55:08;;;;;;;12.73;3.08;;;10.70;99.90;;;;;;4966234;28;20716;-69
2023/12/28 11:57:38;;;;;;;9.15;2.70;;;10.70;99.90;;;;;;4971900;28;20285;-69
2023/12/28 12:00:07;;;;;;;6.05;2.33;;;10.70;99.90;;;;;;4967565;28;21487;-69
2023/12/28 12:02:35;;;;;;;8.15;2.22;;;10.70;99.90;;;;;;4935554;28;20222;-69
2023/12/28 12:05:02;;;;;;;9.80;2.72;;;10.70;99.90;;;;;;4976727;28;20229;-69
2023/12/28 12:07:30;;;;;;;10.18;2.15;;;10.70;99.90;;;;;;4976685;28;20230;-69
2023/12/28 12:09:57;;;;;;;8.85;2.00;;;11.10;99.90;;;;;;4966740;28;20227;-69
2023/12/28 12:12:24;;;;;;;9.88;2.83;;;11.10;99.90;;;;;;4981630;28;20235;-69
2023/12/28 12:14:51;;;;;;;7.00;2.33;;;10.90;99.90;;;;;;4975167;28;20526;-70
2023/12/28 12:17:19;;;;;;;11.07;3.00;;;10.90;99.90;;;;;;4946142;28;20301;-69
2023/12/28 12:19:50;;;;;;;7.93;2.75;;;10.70;99.90;;;;;;4974818;28;20199;-69
2023/12/28 12:22:17;;;;;;;12.30;3.05;;;10.80;99.90;;;;;;4977079;28;21021;-69
2023/12/28 12:24:46;;;;;;;10.40;3.20;;;10.60;99.90;;;;;;4968816;28;20961;-68
2023/12/28 12:27:13;;;;;;;8.82;2.58;;;10.70;99.90;;;;;;4962091;28;20219;-69
2023/12/28 12:29:40;;;;;;;9.77;2.33;;;10.40;99.90;;;;;;4962221;28;20281;-69
2023/12/28 12:32:07;;;;;;;10.90;2.72;;;10.70;99.90;;;;;;4938544;28;20233;-69
2023/12/28 12:34:34;;;;;;;6.43;2.40;;;10.70;99.90;;;;;;4961032;28;20565;-69
2023/12/28 12:37:03;;;;;;;15.68;3.00;;;10.70;99.90;;;;;;4979159;28;21017;-69
2023/12/28 12:39:32;;;;;;;12.15;2.50;;;9.30;99.90;;;;;;4975653;28;20213;-69
2023/12/28 12:41:59;;;;;;;13.60;2.72;;;10.60;99.90;;;;;;4975183;28;20300;-69
2023/12/28 12:44:26;;;;;;;9.57;2.47;;;10.60;99.90;;;;;;4979672;28;20213;-69
2023/12/28 12:46:58;;;;;;;11.65;3.15;;;10.60;99.90;;;;;;4945280;28;20225;-69
2023/12/28 12:49:26;;;;;;;20.05;3.55;;;10.60;99.90;;;;;;4974021;28;20220;-69
2023/12/28 12:51:53;;;;;;;15.75;2.33;;;10.70;99.90;;;;;;4980436;28;20237;-69
2023/12/28 12:54:21;;;;;;;7.65;2.20;;;10.70;99.90;;;;;;4973369;28;20325;-69
2023/12/28 12:56:50;;;;;;;11.80;2.50;;;10.70;99.90;;;;;;4948289;28;20233;-70
2023/12/28 12:59:17;;;;;;;9.38;2.40;;;10.70;99.90;;;;;;4973882;28;20233;-69